createdAt,value
2022-10-21T00:01:04.410Z,83.85
2022-10-21T00:03:51.503Z,85.13
2022-10-21T00:06:38.636Z,75.00
2022-10-21T00:09:25.750Z,79.70
2022-10-21T00:12:12.876Z,81.15
2022-10-21T00:14:59.977Z,66.32
2022-10-21T00:17:47.096Z,75.15
2022-10-21T00:20:37.435Z,60.83
2022-10-21T00:23:27.117Z,56.78
2022-10-21T00:26:15.162Z,57.13
2022-10-21T00:29:02.300Z,66.78
2022-10-21T00:31:52.454Z,69.30
2022-10-21T00:34:43.596Z,51.35
2022-10-21T00:37:34.429Z,59.53
2022-10-21T00:40:21.501Z,57.97
2022-10-21T00:43:12.463Z,57.13
2022-10-21T00:46:07.609Z,60.70
2022-10-21T00:48:59.089Z,58.47
2022-10-21T00:51:49.980Z,61.45
2022-10-21T00:54:38.691Z,57.97
2022-10-21T00:57:29.087Z,67.03
2022-10-21T01:00:16.226Z,57.10
2022-10-21T01:03:04.345Z,60.13
2022-10-21T01:05:52.974Z,59.35
2022-10-21T01:08:40.532Z,65.97
2022-10-21T01:11:28.471Z,61.92
2022-10-21T01:14:33.209Z,61.45
2022-10-21T01:17:44.230Z,57.55
2022-10-21T01:20:32.497Z,66.80
2022-10-21T01:23:31.731Z,70.07
2022-10-21T01:26:37.861Z,63.85
2022-10-21T01:30:00.340Z,60.55
2022-10-21T01:33:17.777Z,57.92
2022-10-21T01:36:19.894Z,58.35
2022-10-21T01:39:07.201Z,64.88
2022-10-21T01:42:14.672Z,58.15
2022-10-21T01:45:10.718Z,56.80
2022-10-21T01:48:05.640Z,53.10
2022-10-21T01:50:57.377Z,62.97
2022-10-21T01:53:52.369Z,59.37
2022-10-21T01:56:43.275Z,56.95
2022-10-21T01:59:33.003Z,66.68
2022-10-21T02:02:22.717Z,61.88
2022-10-21T02:05:19.789Z,61.00
2022-10-21T02:08:07.448Z,60.85
2022-10-21T02:11:08.936Z,58.85
2022-10-21T02:14:15.069Z,73.53
2022-10-21T02:17:02.464Z,62.65
2022-10-21T02:19:54.303Z,59.03
2022-10-21T02:22:46.700Z,64.87
2022-10-21T02:25:38.670Z,64.22
2022-10-21T02:28:28.434Z,59.63
2022-10-21T02:31:31.257Z,66.03
2022-10-21T02:34:34.964Z,56.70
2022-10-21T02:37:30.516Z,65.25
2022-10-21T02:40:25.325Z,56.53
2022-10-21T02:43:36.125Z,56.67
2022-10-21T02:46:23.484Z,61.42
2022-10-21T02:49:10.893Z,59.65
2022-10-21T02:51:58.035Z,64.30
2022-10-21T02:54:45.043Z,67.57
2022-10-21T02:57:34.230Z,68.38
2022-10-21T03:00:21.453Z,71.60
2022-10-21T03:03:08.578Z,70.97
2022-10-21T03:05:56.254Z,79.18
2022-10-21T03:08:44.499Z,77.68
2022-10-21T03:11:31.624Z,81.60
2022-10-21T03:14:18.725Z,74.68
2022-10-21T03:17:05.819Z,65.82
2022-10-21T03:19:52.866Z,72.50
2022-10-21T03:22:40.888Z,54.78
2022-10-21T03:25:31.686Z,50.03
2022-10-21T03:28:24.233Z,59.22
2022-10-21T03:31:13.571Z,55.80
2022-10-21T03:34:01.783Z,52.60
2022-10-21T03:36:51.594Z,39.55
2022-10-21T03:39:38.779Z,34.60
2022-10-21T03:42:29.575Z,26.65
2022-10-21T03:45:16.902Z,25.95
2022-10-21T03:48:04.448Z,19.55
2022-10-21T03:50:51.676Z,23.67
2022-10-21T03:53:43.302Z,19.83
2022-10-21T03:56:30.940Z,25.08
2022-10-21T03:59:18.499Z,18.88
2022-10-21T04:02:05.891Z,20.80
2022-10-21T04:04:53.264Z,22.05
2022-10-21T04:07:40.496Z,21.83
2022-10-21T04:10:30.200Z,19.75
2022-10-21T04:13:17.481Z,23.65
2022-10-21T04:16:08.191Z,33.30
2022-10-21T04:18:55.323Z,26.42
2022-10-21T04:21:42.365Z,22.75
2022-10-21T04:24:29.774Z,39.63
2022-10-21T04:27:16.884Z,21.52
2022-10-21T04:30:04.954Z,27.00
2022-10-21T04:32:52.083Z,24.00
2022-10-21T04:35:41.760Z,25.63
2022-10-21T04:38:30.476Z,17.23
2022-10-21T04:41:19.866Z,27.02
2022-10-21T04:44:09.496Z,16.30
2022-10-21T04:46:56.809Z,16.70
2022-10-21T04:49:44.122Z,11.27
2022-10-21T04:52:33.286Z,13.88
2022-10-21T04:55:20.725Z,15.77
2022-10-21T04:58:07.814Z,19.58
2022-10-21T05:00:55.120Z,15.93
2022-10-21T05:03:42.285Z,18.40
2022-10-21T05:06:32.014Z,19.48
2022-10-21T05:09:19.155Z,21.73
2022-10-21T05:12:06.371Z,16.10
2022-10-21T05:14:53.767Z,18.42
2022-10-21T05:17:43.346Z,17.92
2022-10-21T05:20:30.783Z,16.20
2022-10-21T05:23:20.759Z,24.83
2022-10-21T05:26:08.630Z,22.77
2022-10-21T05:28:58.242Z,20.88
2022-10-21T05:31:48.077Z,25.08
2022-10-21T05:34:39.383Z,20.90
2022-10-21T05:37:38.892Z,17.23
2022-10-21T05:40:26.537Z,23.45
2022-10-21T05:43:13.762Z,22.27
2022-10-21T05:46:04.125Z,23.98
2022-10-21T05:49:04.066Z,21.60
2022-10-21T05:51:54.896Z,22.05
2022-10-21T05:55:35.567Z,24.75
2022-10-21T05:58:10.605Z,23.10
2022-10-21T06:00:58.800Z,24.38
2022-10-21T06:03:47.722Z,19.13
2022-10-21T06:06:37.262Z,27.20
2022-10-21T06:09:24.812Z,27.80
2022-10-21T07:45:22.006Z,32.10
2022-10-21T08:10:32.551Z,28.50
2022-10-21T08:13:20.437Z,25.02
2022-10-21T08:16:10.566Z,27.27
2022-10-21T08:19:26.008Z,31.75
2022-10-21T08:22:37.398Z,30.60
2022-10-21T08:25:45.090Z,29.88
2022-10-21T08:28:38.114Z,27.60
2022-10-21T08:31:46.082Z,27.58
2022-10-21T09:52:36.168Z,10.68
2022-10-21T10:19:11.598Z,12.73
2022-10-21T10:23:15.932Z,12.32
2022-10-21T10:26:52.671Z,16.23
2022-10-21T11:14:53.207Z,10.50
2022-10-21T11:47:54.506Z,4.30
2022-10-21T11:51:11.513Z,5.65
2022-10-21T11:55:08.817Z,3.40
2022-10-21T12:02:52.374Z,4.03
2022-10-21T12:44:01.301Z,7.03
2022-10-21T12:48:08.240Z,4.05
2022-10-21T12:51:02.198Z,2.70
2022-10-21T12:54:09.549Z,5.38
2022-10-21T12:57:08.825Z,8.27
2022-10-21T13:00:20.622Z,3.55
2022-10-21T13:03:23.179Z,5.80
2022-10-21T13:06:41.112Z,3.30
2022-10-21T13:09:53.554Z,4.97
2022-10-21T13:14:26.359Z,5.25
2022-10-21T13:16:48.220Z,4.95
2022-10-21T13:20:19.004Z,3.25
2022-10-21T13:23:54.633Z,7.20
2022-10-21T13:27:02.342Z,6.10
2022-10-21T13:30:41.167Z,3.17
2022-10-21T14:14:59.705Z,3.63
2022-10-21T14:36:00.606Z,4.63
2022-10-21T14:39:04.038Z,3.70
2022-10-21T14:41:57.910Z,2.55
2022-10-21T14:44:46.440Z,2.65
2022-10-21T14:47:34.477Z,3.38
2022-10-21T14:50:23.944Z,2.80
2022-10-21T14:53:18.188Z,1.55
2022-10-21T14:56:09.062Z,4.78
2022-10-21T14:58:58.836Z,3.03
2022-10-21T15:01:46.995Z,6.38
2022-10-21T15:04:53.914Z,1.45
2022-10-21T15:07:42.965Z,3.22
2022-10-21T15:10:34.485Z,3.40
2022-10-21T15:13:26.068Z,4.28
2022-10-21T15:16:28.999Z,4.60
2022-10-21T15:22:42.097Z,2.10
2022-10-21T15:25:29.840Z,4.05
2022-10-21T15:28:18.970Z,2.80
2022-10-21T15:31:16.812Z,6.40
2022-10-21T15:34:14.055Z,2.33
2022-10-21T15:37:01.296Z,5.10
2022-10-21T15:39:48.896Z,3.63
2022-10-21T15:42:38.935Z,1.50
2022-10-21T15:45:26.377Z,1.58
2022-10-21T15:48:14.017Z,2.22
2022-10-21T15:51:03.611Z,2.53
2022-10-21T15:53:52.954Z,2.50
2022-10-21T15:56:40.369Z,2.47
2022-10-21T15:59:32.546Z,3.95
2022-10-21T16:02:20.139Z,6.68
2022-10-21T16:05:09.317Z,2.80
2022-10-21T16:07:56.714Z,5.65
2022-10-21T16:10:48.485Z,2.95
2022-10-21T16:13:35.610Z,2.40
2022-10-21T16:16:25.852Z,6.32
2022-10-21T16:19:14.146Z,1.75
2022-10-21T16:22:01.275Z,3.58
2022-10-21T16:24:48.803Z,3.28
2022-10-21T16:27:51.088Z,3.03
2022-10-21T16:30:42.638Z,2.42
2022-10-21T16:33:30.626Z,2.63
2022-10-21T16:36:17.852Z,3.95
2022-10-21T16:39:17.470Z,2.45
2022-10-21T16:42:04.686Z,4.78
2022-10-21T16:44:51.827Z,6.88
2022-10-21T16:47:41.385Z,3.22
2022-10-21T16:50:30.829Z,3.92
2022-10-21T16:53:18.178Z,3.20
2022-10-21T16:56:05.508Z,10.05
2022-10-21T16:58:53.602Z,5.25
2022-10-21T17:01:40.968Z,4.65
2022-10-21T17:04:30.739Z,2.80
2022-10-21T17:07:18.137Z,6.53
2022-10-21T17:10:05.825Z,1.83
2022-10-21T17:12:58.823Z,3.35
2022-10-21T17:15:46.278Z,1.33
2022-10-21T17:18:46.020Z,3.17
2022-10-21T17:21:40.158Z,2.00
2022-10-21T17:24:30.175Z,2.53
2022-10-21T17:27:19.654Z,2.95
2022-10-21T17:30:09.974Z,7.40
2022-10-21T17:32:57.299Z,5.82
2022-10-21T17:35:44.903Z,5.57
2022-10-21T17:38:32.134Z,4.65
2022-10-21T17:41:22.105Z,2.65
2022-10-21T17:44:11.979Z,5.40
2022-10-21T17:46:59.424Z,3.05
2022-10-21T17:49:47.228Z,2.00
2022-10-21T17:52:35.430Z,1.55
2022-10-21T17:55:22.860Z,2.85
2022-10-21T17:58:12.370Z,4.68
2022-10-21T18:04:56.728Z,5.22
2022-10-21T18:07:58.545Z,2.40
2022-10-21T18:11:22.075Z,7.95
2022-10-21T18:14:26.793Z,2.78
2022-10-21T18:17:35.213Z,2.63
2022-10-21T18:20:31.123Z,2.97
2022-10-21T18:23:35.527Z,2.70
2022-10-21T18:26:28.686Z,2.60
2022-10-21T18:29:16.930Z,3.58
2022-10-21T18:32:04.644Z,2.60
2022-10-21T18:34:52.296Z,4.95
2022-10-21T18:37:39.835Z,7.60
2022-10-21T18:40:33.511Z,3.67
2022-10-21T18:47:10.829Z,6.15
2022-10-21T18:53:55.209Z,7.05
2022-10-21T18:59:46.233Z,3.85
2022-10-21T19:02:38.942Z,3.60
2022-10-21T19:08:25.221Z,7.33
2022-10-21T19:11:22.939Z,10.15
2022-10-21T19:14:20.528Z,7.68
2022-10-21T19:17:48.097Z,7.50
2022-10-21T19:20:33.803Z,4.93
2022-10-21T19:23:26.475Z,5.32
2022-10-21T19:29:20.718Z,7.57
2022-10-21T19:35:23.456Z,5.93
2022-10-21T19:49:24.162Z,4.80
2022-10-21T19:52:11.679Z,5.65
2022-10-21T19:56:09.142Z,6.50
2022-10-21T20:00:07.906Z,7.95
2022-10-21T20:03:42.427Z,4.28
2022-10-21T20:06:40.101Z,6.43
2022-10-21T20:09:40.323Z,5.40
2022-10-21T20:12:41.798Z,6.32
2022-10-21T20:15:32.425Z,8.02
2022-10-21T20:18:27.725Z,7.97
2022-10-21T20:24:23.649Z,10.95
2022-10-21T20:27:13.478Z,8.25
2022-10-21T20:33:07.941Z,9.48
2022-10-21T20:35:55.691Z,9.75
2022-10-21T20:40:07.332Z,13.68
2022-10-21T20:42:17.937Z,11.70
2022-10-21T20:45:05.777Z,9.75
2022-10-21T20:47:53.057Z,11.25
2022-10-21T20:50:42.783Z,10.80
2022-10-21T20:56:46.307Z,11.25
2022-10-21T20:59:36.796Z,15.13
2022-10-21T21:02:32.174Z,17.58
2022-10-21T21:05:25.619Z,15.13
2022-10-21T21:08:21.466Z,14.68
2022-10-21T21:11:14.679Z,13.05
2022-10-21T21:14:19.845Z,10.00
2022-10-21T21:17:09.615Z,11.77
2022-10-21T21:19:56.939Z,8.73
2022-10-21T21:22:46.451Z,16.65
2022-10-21T21:26:34.759Z,17.08
2022-10-21T21:29:20.010Z,15.80
2022-10-21T21:32:13.076Z,11.00
2022-10-21T21:35:03.566Z,14.13
2022-10-21T21:37:53.493Z,11.05
2022-10-21T21:40:40.662Z,13.23
2022-10-21T21:43:29.964Z,10.68
2022-10-21T21:46:24.207Z,9.50
2022-10-21T21:49:12.807Z,4.40
2022-10-21T21:52:00.111Z,5.43
2022-10-21T21:54:54.465Z,4.47
2022-10-21T21:57:44.457Z,4.18
2022-10-21T22:00:32.105Z,4.97
2022-10-21T22:03:21.539Z,5.18
2022-10-21T22:06:09.846Z,3.25
2022-10-21T22:08:57.931Z,10.38
2022-10-21T22:11:45.175Z,1.95
2022-10-21T22:14:32.484Z,2.38
2022-10-21T22:17:19.784Z,3.08
2022-10-21T22:20:08.680Z,6.47
2022-10-21T22:22:57.098Z,4.32
2022-10-21T22:25:44.209Z,3.33
2022-10-21T22:28:31.520Z,2.40
2022-10-21T22:31:19.776Z,3.03
2022-10-21T22:34:10.881Z,4.38
2022-10-21T22:37:02.355Z,1.35
2022-10-21T22:39:49.563Z,3.50
2022-10-21T22:42:38.875Z,1.80
2022-10-21T22:45:26.164Z,3.50
2022-10-21T22:48:13.872Z,4.05
2022-10-21T22:51:01.130Z,3.85
2022-10-21T22:53:53.537Z,2.35
2022-10-21T22:56:43.633Z,3.70
2022-10-21T22:59:31.071Z,4.07
2022-10-21T23:02:18.433Z,4.45
2022-10-21T23:05:07.365Z,1.70
2022-10-21T23:07:56.742Z,2.92
2022-10-21T23:10:45.008Z,0.90
2022-10-21T23:13:33.576Z,0.75
2022-10-21T23:16:21.137Z,3.03
2022-10-21T23:19:08.730Z,0.90
2022-10-21T23:21:56.041Z,1.33
2022-10-21T23:24:48.068Z,2.35
2022-10-21T23:27:35.253Z,4.90
2022-10-21T23:30:31.744Z,3.17
2022-10-21T23:33:18.926Z,7.40
2022-10-21T23:36:07.903Z,2.13
2022-10-21T23:38:56.296Z,6.50
2022-10-21T23:41:43.625Z,6.05
2022-10-21T23:44:30.823Z,1.77
2022-10-21T23:47:17.957Z,4.32
2022-10-21T23:50:05.918Z,3.00
2022-10-21T23:52:53.061Z,1.20
2022-10-21T23:55:40.505Z,3.67
2022-10-21T23:58:27.615Z,3.28
